createdAt,value
2018-09-17T00:00:14.574Z,13.73
2018-09-17T00:02:17.726Z,13.70
2018-09-17T00:04:20.805Z,13.65
2018-09-17T00:06:23.859Z,13.60
2018-09-17T00:08:26.874Z,13.59
2018-09-17T00:10:30.039Z,13.57
2018-09-17T00:12:33.087Z,13.55
2018-09-17T00:14:36.134Z,13.61
2018-09-17T00:16:41.274Z,13.56
2018-09-17T00:18:44.391Z,13.47
2018-09-17T00:20:47.423Z,13.43
2018-09-17T00:22:50.514Z,13.31
2018-09-17T00:24:53.778Z,13.31
2018-09-17T00:26:56.843Z,13.15
2018-09-17T00:29:00.039Z,13.21
2018-09-17T00:31:03.252Z,13.25
2018-09-17T00:33:06.399Z,13.21
2018-09-17T00:35:09.463Z,13.22
2018-09-17T00:37:12.459Z,13.18
2018-09-17T00:39:15.496Z,13.15
2018-09-17T00:41:18.602Z,13.12
2018-09-17T00:43:21.807Z,13.11
2018-09-17T00:45:24.914Z,13.08
2018-09-17T00:47:27.964Z,13.12
2018-09-17T00:49:30.993Z,13.12
2018-09-17T00:51:34.097Z,13.07
2018-09-17T00:53:38.683Z,13.03
2018-09-17T00:55:41.720Z,13.03
2018-09-17T00:57:44.750Z,13.00
2018-09-17T00:59:47.758Z,12.89
2018-09-17T01:01:50.757Z,12.87
2018-09-17T01:03:53.719Z,12.91
2018-09-17T01:05:56.742Z,12.92
2018-09-17T01:08:00.040Z,12.91
2018-09-17T01:10:03.183Z,12.86
2018-09-17T01:12:06.146Z,12.80
2018-09-17T01:14:10.387Z,12.78
2018-09-17T01:16:13.445Z,12.76
2018-09-17T01:18:16.367Z,12.74
2018-09-17T01:20:19.326Z,12.72
2018-09-17T01:22:22.325Z,12.68
2018-09-17T01:24:25.326Z,12.67
2018-09-17T01:26:28.279Z,12.65
2018-09-17T01:28:31.260Z,12.60
2018-09-17T01:30:34.208Z,12.52
2018-09-17T01:32:38.594Z,12.46
2018-09-17T01:34:41.535Z,12.39
2018-09-17T01:36:44.490Z,12.36
2018-09-17T01:38:47.480Z,12.34
2018-09-17T01:40:50.667Z,12.23
2018-09-17T01:42:53.702Z,12.18
2018-09-17T01:44:56.828Z,12.23
2018-09-17T01:46:59.870Z,12.29
2018-09-17T01:49:02.952Z,12.35
2018-09-17T01:51:06.083Z,12.28
2018-09-17T01:53:10.417Z,12.24
2018-09-17T01:55:13.543Z,12.23
2018-09-17T01:57:16.556Z,12.23
2018-09-17T01:59:19.624Z,12.31
2018-09-17T02:01:22.636Z,12.29
2018-09-17T02:03:25.734Z,12.36
2018-09-17T02:05:28.882Z,12.52
2018-09-17T02:07:31.941Z,12.48
2018-09-17T02:09:38.675Z,12.51
2018-09-17T02:11:41.754Z,12.52
2018-09-17T02:13:44.939Z,12.53
2018-09-17T02:15:48.338Z,12.48
2018-09-17T02:17:51.382Z,12.35
2018-09-17T02:19:54.474Z,12.29
2018-09-17T02:21:57.538Z,12.20
2018-09-17T02:24:00.547Z,12.10
2018-09-17T02:26:03.655Z,12.03
2018-09-17T02:28:08.399Z,12.00
2018-09-17T02:30:12.029Z,12.00
2018-09-17T02:32:15.113Z,11.95
2018-09-17T02:34:18.167Z,11.84
2018-09-17T02:36:21.318Z,11.67
2018-09-17T02:38:24.351Z,11.69
2018-09-17T02:40:27.454Z,11.64
2018-09-17T02:42:30.534Z,11.63
2018-09-17T02:44:33.580Z,11.65
2018-09-17T02:46:38.025Z,11.55
2018-09-17T02:48:41.031Z,11.52
2018-09-17T02:50:44.084Z,11.51
2018-09-17T02:52:47.123Z,11.46
2018-09-17T02:54:50.230Z,11.41
2018-09-17T02:56:53.210Z,11.34
2018-09-17T02:58:56.183Z,11.31
2018-09-17T03:00:59.306Z,11.32
2018-09-17T03:03:02.323Z,11.30
2018-09-17T03:05:05.453Z,11.22
2018-09-17T03:07:10.182Z,11.25
2018-09-17T03:09:13.497Z,11.23
2018-09-17T03:11:16.510Z,11.14
2018-09-17T03:13:19.480Z,11.12
2018-09-17T03:15:39.944Z,11.09
2018-09-17T03:17:42.910Z,11.09
2018-09-17T03:19:46.300Z,11.08
2018-09-17T03:21:49.774Z,11.07
2018-09-17T03:23:53.023Z,11.09
2018-09-17T03:25:56.135Z,11.07
2018-09-17T03:27:59.097Z,11.01
2018-09-17T03:30:02.227Z,10.97
2018-09-17T03:32:05.278Z,10.95
2018-09-17T03:34:09.925Z,10.97
2018-09-17T03:36:12.948Z,11.00
2018-09-17T03:38:34.345Z,11.01
2018-09-17T03:40:39.224Z,11.07
2018-09-17T03:42:42.319Z,11.09
2018-09-17T03:44:45.393Z,11.11
2018-09-17T03:46:48.430Z,11.05
2018-09-17T03:48:51.464Z,11.08
2018-09-17T03:50:54.618Z,11.04
2018-09-17T03:52:57.667Z,11.06
2018-09-17T03:55:01.585Z,11.10
2018-09-17T03:57:04.665Z,11.10
2018-09-17T03:59:09.110Z,11.32
2018-09-17T04:01:12.110Z,11.11
2018-09-17T04:03:15.343Z,11.11
2018-09-17T04:05:18.315Z,11.00
2018-09-17T04:07:21.327Z,10.98
2018-09-17T04:09:24.374Z,11.00
2018-09-17T04:11:27.761Z,10.99
2018-09-17T04:13:30.728Z,11.00
2018-09-17T04:15:33.724Z,11.00
2018-09-17T04:17:38.388Z,10.84
2018-09-17T04:19:41.523Z,10.73
2018-09-17T04:21:44.556Z,10.74
2018-09-17T04:23:48.046Z,10.68
2018-09-17T04:25:51.112Z,10.66
2018-09-17T04:27:54.417Z,10.59
2018-09-17T04:29:57.473Z,10.68
2018-09-17T04:32:00.523Z,10.83
2018-09-17T04:34:03.856Z,10.72
2018-09-17T04:36:09.135Z,10.69
2018-09-17T04:38:12.204Z,10.66
2018-09-17T04:40:15.458Z,10.76
2018-09-17T04:42:18.516Z,10.69
2018-09-17T04:44:21.558Z,10.60
2018-09-17T04:46:24.603Z,10.43
2018-09-17T04:48:27.943Z,10.41
2018-09-17T04:50:31.362Z,10.31
2018-09-17T04:52:34.410Z,10.26
2018-09-17T04:54:39.096Z,10.26
2018-09-17T04:56:42.528Z,10.15
2018-09-17T04:58:45.582Z,10.16
2018-09-17T05:00:48.987Z,10.16
2018-09-17T05:02:52.253Z,10.12
2018-09-17T05:04:55.483Z,10.14
2018-09-17T05:06:58.539Z,10.13
2018-09-17T05:09:01.735Z,10.12
2018-09-17T05:11:05.234Z,10.14
2018-09-17T05:13:09.891Z,10.14
2018-09-17T05:15:12.922Z,10.27
2018-09-17T05:17:16.054Z,10.29
2018-09-17T05:19:19.181Z,10.37
2018-09-17T05:21:22.391Z,10.36
2018-09-17T05:23:25.473Z,10.47
2018-09-17T05:25:28.585Z,10.52
2018-09-17T05:27:31.743Z,10.51
2018-09-17T05:29:34.738Z,10.73
2018-09-17T05:31:39.658Z,10.68
2018-09-17T05:33:42.711Z,10.82
2018-09-17T05:35:45.832Z,11.02
2018-09-17T05:37:48.878Z,10.83
2018-09-17T05:39:51.882Z,10.85
2018-09-17T05:41:54.918Z,10.87
2018-09-17T05:43:58.130Z,10.95
2018-09-17T05:46:01.105Z,11.11
2018-09-17T05:48:04.115Z,11.19
2018-09-17T05:50:08.898Z,11.23
2018-09-17T05:52:11.939Z,11.33
2018-09-17T05:54:14.942Z,11.30
2018-09-17T05:56:18.441Z,11.37
2018-09-17T05:58:21.387Z,11.46
2018-09-17T06:00:24.424Z,11.50
2018-09-17T06:02:27.430Z,11.54
2018-09-17T06:04:30.412Z,11.55
2018-09-17T06:06:33.452Z,11.76
2018-09-17T06:08:38.148Z,11.91
2018-09-17T06:10:41.178Z,12.00
2018-09-17T06:12:45.954Z,12.20
2018-09-17T06:14:49.162Z,12.46
2018-09-17T06:16:52.177Z,12.36
2018-09-17T06:18:55.198Z,12.45
2018-09-17T06:20:58.202Z,12.51
2018-09-17T06:23:01.167Z,12.63
2018-09-17T06:25:04.375Z,12.72
2018-09-17T06:27:08.739Z,12.76
2018-09-17T06:29:11.896Z,12.95
2018-09-17T06:31:16.772Z,13.06
2018-09-17T06:33:19.948Z,13.33
2018-09-17T06:35:22.936Z,13.55
2018-09-17T06:37:26.002Z,13.67
2018-09-17T06:39:28.952Z,13.84
2018-09-17T06:41:32.037Z,13.92
2018-09-17T06:43:35.010Z,14.08
2018-09-17T06:45:39.714Z,14.20
2018-09-17T06:47:42.799Z,14.12
2018-09-17T06:49:46.072Z,14.37
2018-09-17T06:51:49.414Z,14.49
2018-09-17T06:53:52.441Z,14.59
2018-09-17T06:55:55.606Z,14.76
2018-09-17T06:57:58.701Z,14.82
2018-09-17T07:00:02.831Z,15.17
2018-09-17T07:02:06.407Z,15.24
2018-09-17T07:04:10.664Z,15.44
2018-09-17T07:06:13.754Z,15.68
2018-09-17T07:08:16.884Z,15.98
2018-09-17T07:10:19.968Z,16.38
2018-09-17T07:12:23.114Z,16.70
2018-09-17T07:14:26.256Z,16.84
2018-09-17T07:16:29.275Z,17.06
2018-09-17T07:18:32.355Z,17.17
2018-09-17T07:20:35.376Z,17.41
2018-09-17T07:22:38.997Z,17.58
2018-09-17T07:24:42.287Z,17.95
2018-09-17T07:26:45.669Z,18.15
2018-09-17T07:28:48.787Z,18.27
2018-09-17T07:30:51.847Z,18.39
2018-09-17T07:32:55.243Z,18.54
2018-09-17T07:34:58.243Z,18.68
2018-09-17T07:37:02.394Z,19.02
2018-09-17T07:39:10.044Z,19.26
2018-09-17T07:41:13.036Z,19.60
2018-09-17T07:43:16.014Z,19.67
2018-09-17T07:45:19.110Z,19.93
2018-09-17T07:47:22.126Z,20.29
2018-09-17T07:49:25.186Z,20.45
2018-09-17T07:51:28.202Z,20.58
2018-09-17T07:53:31.202Z,20.83
2018-09-17T07:55:34.213Z,21.11
2018-09-17T07:57:38.785Z,21.22
2018-09-17T07:59:41.807Z,21.33
2018-09-17T08:01:45.422Z,21.37
2018-09-17T08:03:48.459Z,21.49
2018-09-17T08:05:51.467Z,21.64
2018-09-17T08:07:54.829Z,21.69
2018-09-17T08:09:57.958Z,21.92
2018-09-17T08:12:01.007Z,22.21
2018-09-17T08:14:04.056Z,22.61
2018-09-17T08:16:08.706Z,22.75
2018-09-17T08:18:11.853Z,22.99
2018-09-17T08:20:14.964Z,23.08
2018-09-17T08:22:18.100Z,23.26
2018-09-17T08:24:21.104Z,23.43
2018-09-17T08:26:24.060Z,23.22
2018-09-17T08:28:27.219Z,23.37
2018-09-17T08:30:30.278Z,23.28
2018-09-17T08:32:33.639Z,23.24
2018-09-17T08:34:38.696Z,23.62
2018-09-17T08:36:41.826Z,23.41
2018-09-17T08:38:44.843Z,23.84
2018-09-17T08:40:47.894Z,24.15
2018-09-17T08:42:50.868Z,24.21
2018-09-17T08:44:53.987Z,24.28
2018-09-17T08:46:57.007Z,24.74
2018-09-17T08:49:00.214Z,25.05
2018-09-17T08:51:03.313Z,25.15
2018-09-17T08:53:08.237Z,24.76
2018-09-17T08:55:15.839Z,24.62
2018-09-17T08:57:24.592Z,24.86
2018-09-17T08:59:33.536Z,25.13
2018-09-17T09:01:42.223Z,25.43
2018-09-17T09:03:50.912Z,25.34
2018-09-17T09:05:59.691Z,25.57
2018-09-17T09:08:02.797Z,25.76
2018-09-17T09:10:11.690Z,25.35
2018-09-17T09:12:24.927Z,25.87
2018-09-17T09:14:38.263Z,25.80
2018-09-17T09:16:41.408Z,26.29
2018-09-17T09:18:44.751Z,26.38
2018-09-17T09:20:47.897Z,26.60
2018-09-17T09:22:51.257Z,26.85
2018-09-17T09:24:54.285Z,26.99
2018-09-17T09:26:57.335Z,27.23
2018-09-17T09:29:00.452Z,27.28
2018-09-17T09:31:03.767Z,27.11
2018-09-17T09:33:08.586Z,27.14
2018-09-17T09:35:11.941Z,26.88
2018-09-17T09:37:14.992Z,26.58
2018-09-17T09:39:18.097Z,26.51
2018-09-17T09:41:21.231Z,26.62
2018-09-17T09:43:24.296Z,26.85
2018-09-17T09:45:27.301Z,26.60
2018-09-17T09:47:30.356Z,26.58
2018-09-17T09:49:33.402Z,26.56
2018-09-17T09:51:37.841Z,26.48
2018-09-17T09:53:40.877Z,26.54
2018-09-17T09:55:43.941Z,26.79
2018-09-17T09:57:46.987Z,26.92
2018-09-17T09:59:50.179Z,27.17
2018-09-17T10:01:58.286Z,26.78
2018-09-17T10:04:09.067Z,26.90
2018-09-17T10:06:13.831Z,27.17
2018-09-17T10:08:17.265Z,27.50
2018-09-17T10:10:26.042Z,27.43
2018-09-17T10:12:34.702Z,26.93
2018-09-17T10:14:45.192Z,27.29
2018-09-17T10:16:53.835Z,27.64
2018-09-17T10:19:02.654Z,27.65
2018-09-17T10:21:05.586Z,27.66
2018-09-17T10:23:09.935Z,27.62
2018-09-17T10:25:13.251Z,28.02
2018-09-17T10:27:17.165Z,28.21
2018-09-17T10:29:20.250Z,28.54
2018-09-17T10:31:23.262Z,28.40
2018-09-17T10:33:26.472Z,27.97
2018-09-17T10:35:29.538Z,28.44
2018-09-17T10:37:32.542Z,28.81
2018-09-17T10:39:36.296Z,28.89
2018-09-17T10:41:39.706Z,28.90
2018-09-17T10:43:42.811Z,28.54
2018-09-17T10:45:46.070Z,28.23
2018-09-17T10:47:49.268Z,28.44
2018-09-17T10:49:52.286Z,28.71
2018-09-17T10:51:55.439Z,28.24
2018-09-17T10:53:58.622Z,28.71
2018-09-17T10:56:01.829Z,28.96
2018-09-17T10:58:05.038Z,28.91
2018-09-17T11:00:10.319Z,29.28
2018-09-17T11:02:13.515Z,28.69
2018-09-17T11:04:16.592Z,28.73
2018-09-17T11:06:19.655Z,28.43
2018-09-17T11:08:23.747Z,28.21
2018-09-17T11:10:26.947Z,28.27
2018-09-17T11:12:30.105Z,28.14
2018-09-17T11:14:33.289Z,28.63
2018-09-17T11:16:36.287Z,28.92
2018-09-17T11:18:39.609Z,28.84
2018-09-17T11:20:42.856Z,28.57
2018-09-17T11:22:45.908Z,29.09
2018-09-17T11:24:49.038Z,29.60
2018-09-17T11:26:52.238Z,29.72
2018-09-17T11:28:55.306Z,30.01
2018-09-17T11:30:58.447Z,30.18
2018-09-17T11:33:01.678Z,29.50
2018-09-17T11:35:05.226Z,30.27
2018-09-17T11:37:10.275Z,30.62
2018-09-17T11:39:13.370Z,30.90
2018-09-17T11:41:16.606Z,30.54
2018-09-17T11:43:20.730Z,29.46
2018-09-17T11:45:23.763Z,30.07
2018-09-17T11:47:27.009Z,30.21
2018-09-17T11:49:30.159Z,29.74
2018-09-17T11:51:33.349Z,30.25
2018-09-17T11:53:40.735Z,30.38
2018-09-17T11:55:43.771Z,30.53
2018-09-17T11:57:46.936Z,30.71
2018-09-17T11:59:50.126Z,30.02
2018-09-17T12:01:58.881Z,30.15
2018-09-17T12:04:07.824Z,30.08
2018-09-17T12:06:10.934Z,30.14
2018-09-17T12:08:16.379Z,30.25
2018-09-17T12:10:19.404Z,29.93
2018-09-17T12:12:22.523Z,30.49
2018-09-17T12:14:25.795Z,29.89
2018-09-17T12:16:28.885Z,30.19
2018-09-17T12:18:32.024Z,30.65
2018-09-17T12:20:35.598Z,30.15
2018-09-17T12:22:40.705Z,30.30
2018-09-17T12:24:43.923Z,30.30
2018-09-17T12:26:46.975Z,30.09
2018-09-17T12:28:50.053Z,29.85
2018-09-17T12:30:53.076Z,29.65
2018-09-17T12:32:56.275Z,29.73
2018-09-17T12:34:59.447Z,30.00
2018-09-17T12:37:02.482Z,30.37
2018-09-17T12:39:08.214Z,30.73
2018-09-17T12:41:11.241Z,31.26
2018-09-17T12:43:14.997Z,30.64
2018-09-17T12:45:18.034Z,30.26
2018-09-17T12:47:21.080Z,30.66
2018-09-17T12:49:24.441Z,31.08
2018-09-17T12:51:27.603Z,31.29
2018-09-17T12:53:30.779Z,30.90
2018-09-17T12:55:34.090Z,30.36
2018-09-17T12:57:38.991Z,30.10
2018-09-17T12:59:41.976Z,30.31
2018-09-17T13:01:45.043Z,30.70
2018-09-17T13:03:48.262Z,31.00
2018-09-17T13:05:51.291Z,30.87
2018-09-17T13:07:54.609Z,30.38
2018-09-17T13:09:57.630Z,30.65
2018-09-17T13:12:00.668Z,30.35
2018-09-17T13:14:03.943Z,31.03
2018-09-17T13:16:09.262Z,30.67
2018-09-17T13:18:12.369Z,31.16
2018-09-17T13:20:15.482Z,30.82
2018-09-17T13:22:18.746Z,30.87
2018-09-17T13:24:21.771Z,30.46
2018-09-17T13:26:24.805Z,30.45
2018-09-17T13:28:27.900Z,30.76
2018-09-17T13:30:30.910Z,30.85
2018-09-17T13:32:34.068Z,30.45
2018-09-17T13:34:38.815Z,30.71
2018-09-17T13:36:41.861Z,30.44
2018-09-17T13:38:45.027Z,30.49
2018-09-17T13:40:48.192Z,30.26
2018-09-17T13:42:59.037Z,30.46
2018-09-17T13:45:02.179Z,30.47
2018-09-17T13:47:05.307Z,30.27
2018-09-17T13:49:09.907Z,30.52
2018-09-17T13:51:12.965Z,30.61
2018-09-17T13:53:16.097Z,30.80
2018-09-17T13:55:19.263Z,30.27
2018-09-17T13:57:22.287Z,30.30
2018-09-17T13:59:25.618Z,30.21
2018-09-17T14:01:28.721Z,30.86
2018-09-17T14:03:31.863Z,30.92
2018-09-17T14:05:34.902Z,31.29
2018-09-17T14:07:39.367Z,31.41
2018-09-17T14:09:42.542Z,31.60
2018-09-17T14:11:46.016Z,30.86
2018-09-17T14:13:49.301Z,31.45
2018-09-17T14:15:58.013Z,30.65
2018-09-17T14:18:01.332Z,30.33
2018-09-17T14:20:04.412Z,30.47
2018-09-17T14:22:07.974Z,30.54
2018-09-17T14:24:11.545Z,30.07
2018-09-17T14:26:14.886Z,29.75
2018-09-17T14:28:18.191Z,29.59
2018-09-17T14:30:21.410Z,29.53
2018-09-17T14:32:30.430Z,29.83
2018-09-17T14:34:33.609Z,29.96
2018-09-17T14:36:36.677Z,30.16
2018-09-17T14:38:39.725Z,30.40
2018-09-17T14:40:42.795Z,29.97
2018-09-17T14:42:45.868Z,30.13
2018-09-17T14:44:49.076Z,30.38
2018-09-17T14:46:52.401Z,30.06
2018-09-17T14:48:56.025Z,29.87
2018-09-17T14:50:59.111Z,29.84
2018-09-17T14:53:02.148Z,30.03
2018-09-17T14:55:05.594Z,30.02
2018-09-17T14:57:10.570Z,29.98
2018-09-17T14:59:13.598Z,29.85
2018-09-17T15:01:16.668Z,29.79
2018-09-17T15:03:19.724Z,30.32
2018-09-17T15:05:22.885Z,30.28
2018-09-17T15:07:26.028Z,30.32
2018-09-17T15:09:29.216Z,30.33
2018-09-17T15:11:32.393Z,30.52
2018-09-17T15:13:35.642Z,30.94
2018-09-17T15:15:50.511Z,31.22
2018-09-17T15:17:53.735Z,30.77
2018-09-17T15:19:56.973Z,30.94
2018-09-17T15:22:00.116Z,31.25
2018-09-17T15:24:03.246Z,31.13
2018-09-17T15:26:06.455Z,30.75
2018-09-17T15:28:10.819Z,31.86
2018-09-17T15:30:13.982Z,31.50
2018-09-17T15:32:18.207Z,31.38
2018-09-17T15:34:21.554Z,31.37
2018-09-17T15:36:24.884Z,32.46
2018-09-17T15:38:29.167Z,32.97
2018-09-17T15:40:32.286Z,33.10
2018-09-17T15:42:35.277Z,32.96
2018-09-17T15:44:40.381Z,33.65
2018-09-17T15:46:43.683Z,33.86
2018-09-17T15:48:46.887Z,33.19
2018-09-17T15:50:49.915Z,33.94
2018-09-17T15:52:53.057Z,34.10
2018-09-17T15:54:56.249Z,32.93
2018-09-17T15:56:59.407Z,32.30
2018-09-17T15:59:02.538Z,32.24
2018-09-17T16:01:06.648Z,31.96
2018-09-17T16:03:09.895Z,31.78
2018-09-17T16:05:12.950Z,30.29
2018-09-17T16:07:16.000Z,30.70
2018-09-17T16:09:19.063Z,30.40
2018-09-17T16:11:22.203Z,29.59
2018-09-17T16:13:25.529Z,29.84
2018-09-17T16:15:28.712Z,29.83
2018-09-17T16:17:32.135Z,28.92
2018-09-17T16:19:35.239Z,29.28
2018-09-17T16:21:39.402Z,29.09
2018-09-17T16:23:42.462Z,28.80
2018-09-17T16:25:45.845Z,28.89
2018-09-17T16:27:49.099Z,28.66
2018-09-17T16:29:52.243Z,28.59
2018-09-17T16:31:55.295Z,28.59
2018-09-17T16:33:58.374Z,28.29
2018-09-17T16:36:01.572Z,28.26
2018-09-17T16:38:04.801Z,28.10
2018-09-17T16:40:09.710Z,27.96
2018-09-17T16:42:12.756Z,27.65
2018-09-17T16:44:15.845Z,27.75
2018-09-17T16:46:18.949Z,27.72
2018-09-17T16:48:22.066Z,27.63
2018-09-17T16:50:25.086Z,27.53
2018-09-17T16:52:28.113Z,27.43
2018-09-17T16:54:31.124Z,27.39
2018-09-17T16:56:34.187Z,27.58
2018-09-17T16:58:38.385Z,27.56
2018-09-17T17:00:41.411Z,27.53
2018-09-17T17:02:44.446Z,27.36
2018-09-17T17:04:47.573Z,26.96
2018-09-17T17:06:50.675Z,26.76
2018-09-17T17:08:53.860Z,26.55
2018-09-17T17:10:57.180Z,26.24
2018-09-17T17:13:00.249Z,26.00
2018-09-17T17:15:03.483Z,25.81
2018-09-17T17:17:06.511Z,25.64
2018-09-17T17:19:11.239Z,25.59
2018-09-17T17:21:14.273Z,25.24
2018-09-17T17:23:17.246Z,25.15
2018-09-17T17:25:20.266Z,24.98
2018-09-17T17:27:23.347Z,24.83
2018-09-17T17:29:32.124Z,24.64
2018-09-17T17:31:35.259Z,24.46
2018-09-17T17:33:39.814Z,24.36
2018-09-17T17:35:43.441Z,24.26
2018-09-17T17:37:46.582Z,24.15
2018-09-17T17:39:49.846Z,24.01
2018-09-17T17:41:52.982Z,23.89
2018-09-17T17:43:56.097Z,23.80
2018-09-17T17:45:59.132Z,23.62
2018-09-17T17:48:02.704Z,23.68
2018-09-17T17:50:05.833Z,23.58
2018-09-17T17:52:10.123Z,23.40
2018-09-17T17:54:13.521Z,23.27
2018-09-17T17:56:16.690Z,23.22
2018-09-17T17:58:19.790Z,23.12
2018-09-17T18:00:22.849Z,22.93
2018-09-17T18:02:25.923Z,22.82
2018-09-17T18:04:28.929Z,22.68
2018-09-17T18:06:32.037Z,22.64
2018-09-17T18:08:35.220Z,22.76
2018-09-17T18:10:39.757Z,22.51
2018-09-17T18:12:43.001Z,22.46
2018-09-17T18:14:46.277Z,22.40
2018-09-17T18:16:49.298Z,22.39
2018-09-17T18:18:52.542Z,22.17
2018-09-17T18:20:55.698Z,22.02
2018-09-17T18:22:58.656Z,22.15
2018-09-17T18:25:01.757Z,22.40
2018-09-17T18:29:17.811Z,21.77
2018-09-17T18:31:20.907Z,21.75
2018-09-17T18:33:23.910Z,21.65
2018-09-17T18:35:27.238Z,21.60
2018-09-17T18:37:30.236Z,21.52
2018-09-17T18:39:33.496Z,21.39
2018-09-17T18:41:36.464Z,21.28
2018-09-17T18:43:41.585Z,21.23
2018-09-17T18:45:44.643Z,21.14
2018-09-17T18:47:47.817Z,20.99
2018-09-17T18:49:50.922Z,20.97
2018-09-17T18:51:53.974Z,21.00
2018-09-17T18:53:57.122Z,20.78
2018-09-17T18:56:00.465Z,20.75
2018-09-17T18:58:03.638Z,20.52
2018-09-17T19:00:09.532Z,20.54
2018-09-17T19:02:13.076Z,20.41
2018-09-17T19:04:16.183Z,20.40
2018-09-17T19:06:19.298Z,20.38
2018-09-17T19:08:22.428Z,20.28
2018-09-17T19:10:25.470Z,20.37
2018-09-17T19:12:28.688Z,20.12
2018-09-17T19:14:38.865Z,20.13
2018-09-17T19:16:47.891Z,20.07
2018-09-17T19:18:50.888Z,20.01
2018-09-17T19:20:54.290Z,19.91
2018-09-17T19:23:03.024Z,19.85
2018-09-17T19:25:06.205Z,19.80
2018-09-17T19:27:10.516Z,19.74
2018-09-17T19:29:15.863Z,19.72
2018-09-17T19:31:19.304Z,19.65
2018-09-17T19:33:22.371Z,19.57
2018-09-17T19:35:25.588Z,19.45
2018-09-17T19:37:34.644Z,19.45
2018-09-17T19:39:43.605Z,19.43
2018-09-17T19:41:46.834Z,19.36
2018-09-17T19:43:50.059Z,19.30
2018-09-17T19:45:58.855Z,19.17
2018-09-17T19:48:02.090Z,19.13
2018-09-17T19:50:09.862Z,19.13
2018-09-17T19:52:17.312Z,19.06
2018-09-17T19:54:20.304Z,18.91
2018-09-17T19:56:23.353Z,18.95
2018-09-17T19:58:32.123Z,18.88
2018-09-17T20:00:35.206Z,18.79
2018-09-17T20:02:39.728Z,18.78
2018-09-17T20:04:48.801Z,18.75
2018-09-17T20:06:51.926Z,18.60
2018-09-17T20:08:55.257Z,18.59
2018-09-17T20:11:00.415Z,18.73
2018-09-17T20:13:09.035Z,18.45
2018-09-17T20:15:12.578Z,18.35
2018-09-17T20:17:15.800Z,18.32
2018-09-17T20:19:18.779Z,18.30
2018-09-17T20:21:21.935Z,18.15
2018-09-17T20:23:24.998Z,18.12
2018-09-17T20:25:28.146Z,18.03
2018-09-17T20:27:31.332Z,17.97
2018-09-17T20:29:34.385Z,17.94
2018-09-17T20:31:38.113Z,17.91
2018-09-17T20:33:41.282Z,17.92
2018-09-17T20:35:44.388Z,17.89
2018-09-17T20:37:47.911Z,17.85
2018-09-17T20:39:50.920Z,17.83
2018-09-17T20:41:54.015Z,17.75
2018-09-17T20:43:57.197Z,17.69
2018-09-17T20:46:00.253Z,17.71
2018-09-17T20:48:03.382Z,17.67
2018-09-17T20:50:06.501Z,17.55
2018-09-17T20:52:11.044Z,17.51
2018-09-17T20:54:14.536Z,17.37
2018-09-17T20:56:17.615Z,17.31
2018-09-17T20:58:20.738Z,17.11
2018-09-17T21:00:23.897Z,17.31
2018-09-17T21:02:26.925Z,17.25
2018-09-17T21:04:30.003Z,17.21
2018-09-17T21:06:33.205Z,17.18
2018-09-17T21:26:22.520Z,16.81
2018-09-17T22:14:12.961Z,16.05
2018-09-17T22:16:15.998Z,16.07
2018-09-17T22:18:19.087Z,16.03
2018-09-17T22:20:22.139Z,16.04
2018-09-17T22:22:25.177Z,15.97
2018-09-17T22:24:28.270Z,15.99
2018-09-17T22:26:31.334Z,15.95
2018-09-17T22:28:34.545Z,15.83
2018-09-17T22:30:38.177Z,15.77
2018-09-17T22:32:41.212Z,15.78
2018-09-17T22:34:44.298Z,15.88
2018-09-17T22:36:47.411Z,15.82
2018-09-17T22:38:50.481Z,15.75
2018-09-17T22:40:53.805Z,15.70
2018-09-17T22:42:56.931Z,15.63
2018-09-17T22:45:00.206Z,15.65
2018-09-17T22:47:03.306Z,15.67
2018-09-17T22:49:06.905Z,15.55
2018-09-17T22:51:10.904Z,15.59
2018-09-17T22:53:14.327Z,15.54
2018-09-17T22:55:17.374Z,15.56
2018-09-17T22:57:20.478Z,15.53
2018-09-17T22:59:23.514Z,15.63
2018-09-17T23:01:26.852Z,15.52
2018-09-17T23:03:29.833Z,15.54
2018-09-17T23:05:33.066Z,15.37
2018-09-17T23:07:36.190Z,15.46
2018-09-17T23:09:40.770Z,15.44
2018-09-17T23:11:43.778Z,15.41
2018-09-17T23:13:47.143Z,15.22
2018-09-17T23:15:50.159Z,15.08
2018-09-17T23:17:53.160Z,14.96
2018-09-17T23:19:56.179Z,14.94
2018-09-17T23:21:59.206Z,14.93
2018-09-17T23:24:02.216Z,14.90
2018-09-17T23:26:05.280Z,14.86
2018-09-17T23:28:10.202Z,14.73
2018-09-17T23:30:13.258Z,14.62
2018-09-17T23:32:16.306Z,14.66
2018-09-17T23:34:19.329Z,14.63
2018-09-17T23:36:22.364Z,14.66
2018-09-17T23:38:25.399Z,14.73
2018-09-17T23:40:28.393Z,14.62
2018-09-17T23:42:31.410Z,14.62
2018-09-17T23:44:34.544Z,14.61
2018-09-17T23:46:39.297Z,14.54
2018-09-17T23:48:42.326Z,14.44
2018-09-17T23:50:45.446Z,14.50
2018-09-17T23:52:48.608Z,14.53
2018-09-17T23:54:51.650Z,14.44
2018-09-17T23:56:54.630Z,14.45
2018-09-17T23:58:57.662Z,14.46
